sensor_id;sensor_type;location;lat;lon;timestamp;temperature;humidity
36654;DHT22;22650;49.350;20.898;2022-08-21T00:01:15;17.90;99.90
36654;DHT22;22650;49.350;20.898;2022-08-21T00:03:50;17.90;99.90
36654;DHT22;22650;49.350;20.898;2022-08-21T00:06:24;17.80;99.90
36654;DHT22;22650;49.350;20.898;2022-08-21T00:08:59;17.80;99.90
36654;DHT22;22650;49.350;20.898;2022-08-21T00:11:38;17.80;99.90
36654;DHT22;22650;49.350;20.898;2022-08-21T00:14:12;17.70;99.90
36654;DHT22;22650;49.350;20.898;2022-08-21T00:16:46;17.70;99.90
36654;DHT22;22650;49.350;20.898;2022-08-21T00:19:20;17.70;99.90
36654;DHT22;22650;49.350;20.898;2022-08-21T00:21:57;17.70;99.90
36654;DHT22;22650;49.350;20.898;2022-08-21T00:24:31;17.70;99.90
36654;DHT22;22650;49.350;20.898;2022-08-21T00:27:05;17.60;99.90
36654;DHT22;22650;49.350;20.898;2022-08-21T00:29:39;17.60;99.90
36654;DHT22;22650;49.350;20.898;2022-08-21T00:32:12;17.60;99.90
36654;DHT22;22650;49.350;20.898;2022-08-21T00:34:52;17.60;99.90
36654;DHT22;22650;49.350;20.898;2022-08-21T00:37:26;17.60;99.90
36654;DHT22;22650;49.350;20.898;2022-08-21T00:40:03;17.50;99.90
36654;DHT22;22650;49.350;20.898;2022-08-21T00:42:37;17.50;99.90
36654;DHT22;22650;49.350;20.898;2022-08-21T00:45:11;17.50;99.90
36654;DHT22;22650;49.350;20.898;2022-08-21T00:47:45;17.50;99.90
36654;DHT22;22650;49.350;20.898;2022-08-21T00:50:19;17.50;99.90
36654;DHT22;22650;49.350;20.898;2022-08-21T00:52:53;17.40;99.90
36654;DHT22;22650;49.350;20.898;2022-08-21T00:55:29;17.40;99.90
36654;DHT22;22650;49.350;20.898;2022-08-21T00:58:06;17.40;99.90
36654;DHT22;22650;49.350;20.898;2022-08-21T01:00:43;17.40;99.90
36654;DHT22;22650;49.350;20.898;2022-08-21T01:03:20;17.40;99.90
36654;DHT22;22650;49.350;20.898;2022-08-21T01:05:54;17.30;99.90
36654;DHT22;22650;49.350;20.898;2022-08-21T01:08:28;17.30;99.90
36654;DHT22;22650;49.350;20.898;2022-08-21T01:11:04;17.30;99.90
36654;DHT22;22650;49.350;20.898;2022-08-21T01:13:38;17.20;99.90
36654;DHT22;22650;49.350;20.898;2022-08-21T01:16:20;17.20;99.90
36654;DHT22;22650;49.350;20.898;2022-08-21T01:18:54;17.10;99.90
36654;DHT22;22650;49.350;20.898;2022-08-21T01:21:29;17.10;99.90
36654;DHT22;22650;49.350;20.898;2022-08-21T01:24:04;17.10;99.90
36654;DHT22;22650;49.350;20.898;2022-08-21T01:26:39;17.10;99.90
36654;DHT22;22650;49.350;20.898;2022-08-21T01:29:15;17.00;99.90
36654;DHT22;22650;49.350;20.898;2022-08-21T01:31:49;17.00;99.90
36654;DHT22;22650;49.350;20.898;2022-08-21T01:34:23;17.00;99.90
36654;DHT22;22650;49.350;20.898;2022-08-21T01:36:58;17.00;99.90
36654;DHT22;22650;49.350;20.898;2022-08-21T01:39:31;17.00;99.90
36654;DHT22;22650;49.350;20.898;2022-08-21T01:42:06;16.90;99.90
36654;DHT22;22650;49.350;20.898;2022-08-21T01:44:39;17.00;99.90
36654;DHT22;22650;49.350;20.898;2022-08-21T01:47:14;16.90;99.90
36654;DHT22;22650;49.350;20.898;2022-08-21T01:49:49;16.90;99.90
36654;DHT22;22650;49.350;20.898;2022-08-21T01:52:24;16.90;99.90
36654;DHT22;22650;49.350;20.898;2022-08-21T01:54:58;16.90;99.90
36654;DHT22;22650;49.350;20.898;2022-08-21T01:57:31;16.90;99.90
36654;DHT22;22650;49.350;20.898;2022-08-21T02:00:09;17.00;99.90
36654;DHT22;22650;49.350;20.898;2022-08-21T02:02:43;17.00;99.90
36654;DHT22;22650;49.350;20.898;2022-08-21T02:05:18;17.00;99.90
36654;DHT22;22650;49.350;20.898;2022-08-21T02:07:54;16.90;99.90
36654;DHT22;22650;49.350;20.898;2022-08-21T02:10:31;16.90;99.90
36654;DHT22;22650;49.350;20.898;2022-08-21T02:13:05;16.90;99.90
36654;DHT22;22650;49.350;20.898;2022-08-21T02:15:44;16.90;99.90
36654;DHT22;22650;49.350;20.898;2022-08-21T02:18:18;16.90;99.90
36654;DHT22;22650;49.350;20.898;2022-08-21T02:20:51;16.90;99.90
36654;DHT22;22650;49.350;20.898;2022-08-21T02:23:29;16.90;99.90
36654;DHT22;22650;49.350;20.898;2022-08-21T02:26:05;16.90;99.90
36654;DHT22;22650;49.350;20.898;2022-08-21T02:28:39;16.90;99.90
36654;DHT22;22650;49.350;20.898;2022-08-21T02:31:13;16.90;99.90
36654;DHT22;22650;49.350;20.898;2022-08-21T02:33:46;16.80;99.90
36654;DHT22;22650;49.350;20.898;2022-08-21T02:36:20;16.80;99.90
36654;DHT22;22650;49.350;20.898;2022-08-21T02:38:55;16.80;99.90
36654;DHT22;22650;49.350;20.898;2022-08-21T02:41:29;16.80;99.90
36654;DHT22;22650;49.350;20.898;2022-08-21T02:44:02;16.80;99.90
36654;DHT22;22650;49.350;20.898;2022-08-21T02:46:36;16.70;99.90
36654;DHT22;22650;49.350;20.898;2022-08-21T02:49:09;16.70;99.90
36654;DHT22;22650;49.350;20.898;2022-08-21T02:51:43;16.70;99.90
36654;DHT22;22650;49.350;20.898;2022-08-21T02:54:18;16.70;99.90
36654;DHT22;22650;49.350;20.898;2022-08-21T02:56:51;16.70;99.90
36654;DHT22;22650;49.350;20.898;2022-08-21T02:59:25;16.60;99.90
36654;DHT22;22650;49.350;20.898;2022-08-21T03:01:58;16.60;99.90
36654;DHT22;22650;49.350;20.898;2022-08-21T03:04:32;16.60;99.90
36654;DHT22;22650;49.350;20.898;2022-08-21T03:07:05;16.60;99.90
36654;DHT22;22650;49.350;20.898;2022-08-21T03:09:43;16.70;99.90
36654;DHT22;22650;49.350;20.898;2022-08-21T03:12:27;16.70;99.90
36654;DHT22;22650;49.350;20.898;2022-08-21T03:15:01;16.60;99.90
36654;DHT22;22650;49.350;20.898;2022-08-21T03:17:36;16.60;99.90
36654;DHT22;22650;49.350;20.898;2022-08-21T03:20:10;16.60;99.90
36654;DHT22;22650;49.350;20.898;2022-08-21T03:22:44;16.60;99.90
36654;DHT22;22650;49.350;20.898;2022-08-21T03:25:27;16.70;99.90
36654;DHT22;22650;49.350;20.898;2022-08-21T03:28:15;16.60;99.90
36654;DHT22;22650;49.350;20.898;2022-08-21T03:30:50;16.60;99.90
36654;DHT22;22650;49.350;20.898;2022-08-21T03:33:24;16.60;99.90
36654;DHT22;22650;49.350;20.898;2022-08-21T03:36:03;16.60;99.90
36654;DHT22;22650;49.350;20.898;2022-08-21T03:38:38;16.60;99.90
36654;DHT22;22650;49.350;20.898;2022-08-21T03:41:13;16.60;99.90
36654;DHT22;22650;49.350;20.898;2022-08-21T03:43:46;16.50;99.90
36654;DHT22;22650;49.350;20.898;2022-08-21T03:46:20;16.50;99.90
36654;DHT22;22650;49.350;20.898;2022-08-21T03:48:53;16.50;99.90
36654;DHT22;22650;49.350;20.898;2022-08-21T03:51:27;16.50;99.90
36654;DHT22;22650;49.350;20.898;2022-08-21T03:54:02;16.50;99.90
36654;DHT22;22650;49.350;20.898;2022-08-21T03:56:37;16.40;99.90
36654;DHT22;22650;49.350;20.898;2022-08-21T03:59:11;16.50;99.90
36654;DHT22;22650;49.350;20.898;2022-08-21T04:01:51;16.50;99.90
36654;DHT22;22650;49.350;20.898;2022-08-21T04:04:26;16.50;99.90
36654;DHT22;22650;49.350;20.898;2022-08-21T04:07:00;16.50;99.90
36654;DHT22;22650;49.350;20.898;2022-08-21T04:09:33;16.50;99.90
36654;DHT22;22650;49.350;20.898;2022-08-21T04:12:09;16.50;99.90
36654;DHT22;22650;49.350;20.898;2022-08-21T04:14:42;16.50;99.90
36654;DHT22;22650;49.350;20.898;2022-08-21T04:17:16;16.50;99.90
36654;DHT22;22650;49.350;20.898;2022-08-21T04:19:50;16.60;99.90
36654;DHT22;22650;49.350;20.898;2022-08-21T04:22:25;16.60;99.90
36654;DHT22;22650;49.350;20.898;2022-08-21T04:24:58;16.60;99.90
36654;DHT22;22650;49.350;20.898;2022-08-21T04:27:33;16.70;99.90
36654;DHT22;22650;49.350;20.898;2022-08-21T04:30:09;16.70;99.90
36654;DHT22;22650;49.350;20.898;2022-08-21T04:32:43;16.70;99.90
36654;DHT22;22650;49.350;20.898;2022-08-21T04:35:19;16.70;99.90
36654;DHT22;22650;49.350;20.898;2022-08-21T04:37:53;16.80;99.90
36654;DHT22;22650;49.350;20.898;2022-08-21T04:40:27;16.80;99.90
36654;DHT22;22650;49.350;20.898;2022-08-21T04:43:04;16.90;99.90
36654;DHT22;22650;49.350;20.898;2022-08-21T04:45:40;16.90;99.90
36654;DHT22;22650;49.350;20.898;2022-08-21T04:48:15;16.90;99.90
36654;DHT22;22650;49.350;20.898;2022-08-21T04:50:52;16.90;99.90
36654;DHT22;22650;49.350;20.898;2022-08-21T04:53:32;17.00;99.90
36654;DHT22;22650;49.350;20.898;2022-08-21T04:56:09;17.00;99.90
36654;DHT22;22650;49.350;20.898;2022-08-21T04:58:46;17.10;99.90
36654;DHT22;22650;49.350;20.898;2022-08-21T05:01:23;17.10;99.90
36654;DHT22;22650;49.350;20.898;2022-08-21T05:03:59;17.20;99.90
36654;DHT22;22650;49.350;20.898;2022-08-21T05:06:35;17.20;99.90
36654;DHT22;22650;49.350;20.898;2022-08-21T05:09:13;17.30;99.90
36654;DHT22;22650;49.350;20.898;2022-08-21T05:11:47;17.30;99.90
36654;DHT22;22650;49.350;20.898;2022-08-21T05:14:22;17.40;99.90
36654;DHT22;22650;49.350;20.898;2022-08-21T05:16:57;17.50;99.90
36654;DHT22;22650;49.350;20.898;2022-08-21T05:19:30;17.60;99.90
36654;DHT22;22650;49.350;20.898;2022-08-21T05:22:04;17.60;99.90
36654;DHT22;22650;49.350;20.898;2022-08-21T05:24:38;17.70;99.90
36654;DHT22;22650;49.350;20.898;2022-08-21T05:27:11;17.80;99.90
36654;DHT22;22650;49.350;20.898;2022-08-21T05:29:50;17.90;99.90
36654;DHT22;22650;49.350;20.898;2022-08-21T05:32:23;17.90;99.90
36654;DHT22;22650;49.350;20.898;2022-08-21T05:34:57;18.10;99.90
36654;DHT22;22650;49.350;20.898;2022-08-21T05:37:32;18.10;99.90
36654;DHT22;22650;49.350;20.898;2022-08-21T05:40:07;18.20;99.90
36654;DHT22;22650;49.350;20.898;2022-08-21T05:42:54;18.30;99.90
36654;DHT22;22650;49.350;20.898;2022-08-21T05:45:31;18.40;99.90
36654;DHT22;22650;49.350;20.898;2022-08-21T05:48:16;18.50;99.90
36654;DHT22;22650;49.350;20.898;2022-08-21T05:50:51;18.60;99.90
36654;DHT22;22650;49.350;20.898;2022-08-21T05:53:25;18.70;99.90
36654;DHT22;22650;49.350;20.898;2022-08-21T05:55:58;18.80;99.90
36654;DHT22;22650;49.350;20.898;2022-08-21T05:58:32;18.90;99.90
36654;DHT22;22650;49.350;20.898;2022-08-21T06:01:07;19.00;99.90
36654;DHT22;22650;49.350;20.898;2022-08-21T06:03:41;19.10;99.90
36654;DHT22;22650;49.350;20.898;2022-08-21T06:06:15;19.20;99.90
36654;DHT22;22650;49.350;20.898;2022-08-21T06:08:48;19.30;99.90
36654;DHT22;22650;49.350;20.898;2022-08-21T06:11:22;19.40;99.90
36654;DHT22;22650;49.350;20.898;2022-08-21T06:14:00;19.50;99.90
36654;DHT22;22650;49.350;20.898;2022-08-21T06:16:35;19.50;99.90
36654;DHT22;22650;49.350;20.898;2022-08-21T06:19:08;19.60;99.90
36654;DHT22;22650;49.350;20.898;2022-08-21T06:21:41;19.70;99.90
36654;DHT22;22650;49.350;20.898;2022-08-21T06:24:15;19.80;99.90
36654;DHT22;22650;49.350;20.898;2022-08-21T06:26:49;19.90;99.90
36654;DHT22;22650;49.350;20.898;2022-08-21T06:29:22;20.00;99.90
36654;DHT22;22650;49.350;20.898;2022-08-21T06:31:58;20.10;99.90
36654;DHT22;22650;49.350;20.898;2022-08-21T06:34:35;20.20;99.90
36654;DHT22;22650;49.350;20.898;2022-08-21T06:37:09;20.30;99.90
36654;DHT22;22650;49.350;20.898;2022-08-21T06:39:43;20.40;99.90
36654;DHT22;22650;49.350;20.898;2022-08-21T06:42:17;20.40;99.90
36654;DHT22;22650;49.350;20.898;2022-08-21T06:44:51;20.50;99.90
36654;DHT22;22650;49.350;20.898;2022-08-21T06:47:25;20.60;99.90
36654;DHT22;22650;49.350;20.898;2022-08-21T06:49:59;20.70;99.90
36654;DHT22;22650;49.350;20.898;2022-08-21T06:52:34;20.80;99.90
36654;DHT22;22650;49.350;20.898;2022-08-21T06:55:08;20.80;99.90
36654;DHT22;22650;49.350;20.898;2022-08-21T06:57:43;21.00;99.90
36654;DHT22;22650;49.350;20.898;2022-08-21T07:00:24;21.10;99.90
36654;DHT22;22650;49.350;20.898;2022-08-21T07:02:59;21.30;99.90
36654;DHT22;22650;49.350;20.898;2022-08-21T07:05:32;21.40;99.90
36654;DHT22;22650;49.350;20.898;2022-08-21T07:08:06;21.60;99.90
36654;DHT22;22650;49.350;20.898;2022-08-21T07:10:40;21.70;99.90
36654;DHT22;22650;49.350;20.898;2022-08-21T07:13:13;21.80;99.90
36654;DHT22;22650;49.350;20.898;2022-08-21T07:15:46;21.90;99.90
36654;DHT22;22650;49.350;20.898;2022-08-21T07:18:22;22.00;99.90
36654;DHT22;22650;49.350;20.898;2022-08-21T07:20:55;22.10;99.90
36654;DHT22;22650;49.350;20.898;2022-08-21T07:23:30;22.20;99.90
36654;DHT22;22650;49.350;20.898;2022-08-21T07:26:05;22.30;99.90
36654;DHT22;22650;49.350;20.898;2022-08-21T07:28:39;22.30;99.90
36654;DHT22;22650;49.350;20.898;2022-08-21T07:31:15;22.40;99.90
36654;DHT22;22650;49.350;20.898;2022-08-21T07:33:50;22.50;99.90
36654;DHT22;22650;49.350;20.898;2022-08-21T07:36:24;22.60;99.90
36654;DHT22;22650;49.350;20.898;2022-08-21T07:38:57;22.60;99.90
36654;DHT22;22650;49.350;20.898;2022-08-21T07:41:31;22.70;99.90
36654;DHT22;22650;49.350;20.898;2022-08-21T07:44:06;22.80;99.90
36654;DHT22;22650;49.350;20.898;2022-08-21T07:46:43;22.90;99.90
36654;DHT22;22650;49.350;20.898;2022-08-21T07:49:18;22.90;99.90
36654;DHT22;22650;49.350;20.898;2022-08-21T07:51:51;23.00;99.90
36654;DHT22;22650;49.350;20.898;2022-08-21T07:54:25;23.10;99.90
36654;DHT22;22650;49.350;20.898;2022-08-21T07:57:05;23.10;99.90
36654;DHT22;22650;49.350;20.898;2022-08-21T07:59:39;23.20;99.90
36654;DHT22;22650;49.350;20.898;2022-08-21T08:02:22;23.30;99.90
36654;DHT22;22650;49.350;20.898;2022-08-21T08:05:00;23.30;99.90
36654;DHT22;22650;49.350;20.898;2022-08-21T08:07:34;23.40;99.90
36654;DHT22;22650;49.350;20.898;2022-08-21T08:10:08;23.40;99.90
36654;DHT22;22650;49.350;20.898;2022-08-21T08:12:43;23.50;99.90
36654;DHT22;22650;49.350;20.898;2022-08-21T08:15:18;23.60;99.90
36654;DHT22;22650;49.350;20.898;2022-08-21T08:17:53;23.60;99.90
36654;DHT22;22650;49.350;20.898;2022-08-21T08:20:28;23.70;99.90
36654;DHT22;22650;49.350;20.898;2022-08-21T08:23:02;23.70;99.90
36654;DHT22;22650;49.350;20.898;2022-08-21T08:25:35;23.70;99.90
36654;DHT22;22650;49.350;20.898;2022-08-21T08:28:09;23.80;99.90
36654;DHT22;22650;49.350;20.898;2022-08-21T08:30:48;23.90;99.90
36654;DHT22;22650;49.350;20.898;2022-08-21T08:33:22;24.00;99.90
36654;DHT22;22650;49.350;20.898;2022-08-21T08:35:57;24.10;99.90
36654;DHT22;22650;49.350;20.898;2022-08-21T08:38:37;24.20;99.90
36654;DHT22;22650;49.350;20.898;2022-08-21T08:41:15;24.30;99.90
36654;DHT22;22650;49.350;20.898;2022-08-21T08:43:52;24.40;99.90
36654;DHT22;22650;49.350;20.898;2022-08-21T08:46:33;24.60;99.90
36654;DHT22;22650;49.350;20.898;2022-08-21T08:49:11;24.70;99.90
36654;DHT22;22650;49.350;20.898;2022-08-21T08:51:55;24.80;99.90
36654;DHT22;22650;49.350;20.898;2022-08-21T08:54:33;25.00;99.90
36654;DHT22;22650;49.350;20.898;2022-08-21T08:57:10;25.20;99.90
36654;DHT22;22650;49.350;20.898;2022-08-21T08:59:49;25.40;99.90
36654;DHT22;22650;49.350;20.898;2022-08-21T09:02:25;25.60;99.90
36654;DHT22;22650;49.350;20.898;2022-08-21T09:05:00;25.70;99.90
36654;DHT22;22650;49.350;20.898;2022-08-21T09:07:43;25.80;99.90
36654;DHT22;22650;49.350;20.898;2022-08-21T09:10:19;25.90;99.90
36654;DHT22;22650;49.350;20.898;2022-08-21T09:13:01;25.90;99.90
36654;DHT22;22650;49.350;20.898;2022-08-21T09:15:45;26.10;99.90
36654;DHT22;22650;49.350;20.898;2022-08-21T09:18:34;26.10;99.90
36654;DHT22;22650;49.350;20.898;2022-08-21T09:21:16;26.20;99.90
36654;DHT22;22650;49.350;20.898;2022-08-21T09:23:59;26.20;99.90
36654;DHT22;22650;49.350;20.898;2022-08-21T09:26:40;26.30;99.90
36654;DHT22;22650;49.350;20.898;2022-08-21T09:29:20;26.30;99.90
36654;DHT22;22650;49.350;20.898;2022-08-21T09:31:55;26.40;99.90
36654;DHT22;22650;49.350;20.898;2022-08-21T09:34:30;26.30;99.90
36654;DHT22;22650;49.350;20.898;2022-08-21T09:37:04;26.40;99.90
36654;DHT22;22650;49.350;20.898;2022-08-21T09:39:39;26.40;99.90
36654;DHT22;22650;49.350;20.898;2022-08-21T09:42:23;26.40;99.90
36654;DHT22;22650;49.350;20.898;2022-08-21T09:45:08;26.40;99.90
36654;DHT22;22650;49.350;20.898;2022-08-21T09:47:42;26.40;99.90
36654;DHT22;22650;49.350;20.898;2022-08-21T09:50:20;26.40;99.90
36654;DHT22;22650;49.350;20.898;2022-08-21T09:52:56;26.40;99.90
36654;DHT22;22650;49.350;20.898;2022-08-21T09:55:39;26.30;99.90
36654;DHT22;22650;49.350;20.898;2022-08-21T09:58:41;26.40;99.90
36654;DHT22;22650;49.350;20.898;2022-08-21T10:01:20;26.40;99.90
36654;DHT22;22650;49.350;20.898;2022-08-21T10:04:02;26.50;99.90
36654;DHT22;22650;49.350;20.898;2022-08-21T10:06:36;26.60;99.90
36654;DHT22;22650;49.350;20.898;2022-08-21T10:09:13;26.70;99.90
36654;DHT22;22650;49.350;20.898;2022-08-21T10:12:06;26.70;99.90
36654;DHT22;22650;49.350;20.898;2022-08-21T10:14:49;26.70;99.90
36654;DHT22;22650;49.350;20.898;2022-08-21T10:17:30;26.70;99.90
36654;DHT22;22650;49.350;20.898;2022-08-21T10:20:09;26.70;99.90
36654;DHT22;22650;49.350;20.898;2022-08-21T10:22:57;26.60;99.90
36654;DHT22;22650;49.350;20.898;2022-08-21T10:25:40;26.70;99.90
36654;DHT22;22650;49.350;20.898;2022-08-21T10:28:39;26.60;99.90
36654;DHT22;22650;49.350;20.898;2022-08-21T10:31:23;26.50;99.90
36654;DHT22;22650;49.350;20.898;2022-08-21T10:34:06;26.40;99.90
36654;DHT22;22650;49.350;20.898;2022-08-21T10:36:48;26.40;99.90
36654;DHT22;22650;49.350;20.898;2022-08-21T10:39:27;26.30;99.90
36654;DHT22;22650;49.350;20.898;2022-08-21T10:42:21;26.30;99.90
36654;DHT22;22650;49.350;20.898;2022-08-21T10:45:09;26.30;99.90
36654;DHT22;22650;49.350;20.898;2022-08-21T10:47:48;26.30;99.90
36654;DHT22;22650;49.350;20.898;2022-08-21T10:50:31;26.20;99.90
36654;DHT22;22650;49.350;20.898;2022-08-21T10:53:18;26.10;99.90
36654;DHT22;22650;49.350;20.898;2022-08-21T10:55:56;26.00;99.90
36654;DHT22;22650;49.350;20.898;2022-08-21T10:58:38;25.90;99.90
36654;DHT22;22650;49.350;20.898;2022-08-21T11:01:20;25.90;99.90
36654;DHT22;22650;49.350;20.898;2022-08-21T11:04:07;25.70;99.90
36654;DHT22;22650;49.350;20.898;2022-08-21T11:06:45;25.60;99.90
36654;DHT22;22650;49.350;20.898;2022-08-21T11:09:22;25.50;99.90
36654;DHT22;22650;49.350;20.898;2022-08-21T11:12:03;25.50;99.90
36654;DHT22;22650;49.350;20.898;2022-08-21T11:14:51;25.40;99.90
36654;DHT22;22650;49.350;20.898;2022-08-21T11:17:34;25.30;99.90
36654;DHT22;22650;49.350;20.898;2022-08-21T11:20:13;25.20;99.90
36654;DHT22;22650;49.350;20.898;2022-08-21T11:22:53;25.10;99.90
36654;DHT22;22650;49.350;20.898;2022-08-21T11:25:38;24.90;99.90
36654;DHT22;22650;49.350;20.898;2022-08-21T11:28:19;24.80;99.90
36654;DHT22;22650;49.350;20.898;2022-08-21T11:31:02;24.70;99.90
36654;DHT22;22650;49.350;20.898;2022-08-21T11:33:49;24.70;99.90
36654;DHT22;22650;49.350;20.898;2022-08-21T11:36:30;24.70;99.90
36654;DHT22;22650;49.350;20.898;2022-08-21T11:39:15;24.60;99.90
36654;DHT22;22650;49.350;20.898;2022-08-21T11:41:56;24.60;99.90
36654;DHT22;22650;49.350;20.898;2022-08-21T11:44:40;24.50;99.90
36654;DHT22;22650;49.350;20.898;2022-08-21T11:47:25;24.40;99.90
36654;DHT22;22650;49.350;20.898;2022-08-21T11:50:13;24.40;99.90
36654;DHT22;22650;49.350;20.898;2022-08-21T11:53:09;24.40;99.90
36654;DHT22;22650;49.350;20.898;2022-08-21T11:55:47;24.40;99.90
36654;DHT22;22650;49.350;20.898;2022-08-21T11:58:27;24.40;99.90
36654;DHT22;22650;49.350;20.898;2022-08-21T12:01:07;24.40;99.90
36654;DHT22;22650;49.350;20.898;2022-08-21T12:03:50;24.50;99.90
36654;DHT22;22650;49.350;20.898;2022-08-21T12:06:32;24.40;99.90
36654;DHT22;22650;49.350;20.898;2022-08-21T12:09:08;24.40;99.90
36654;DHT22;22650;49.350;20.898;2022-08-21T12:11:48;24.40;99.90
36654;DHT22;22650;49.350;20.898;2022-08-21T12:14:23;24.40;99.90
36654;DHT22;22650;49.350;20.898;2022-08-21T12:17:05;24.40;99.90
36654;DHT22;22650;49.350;20.898;2022-08-21T12:19:43;24.40;99.90
36654;DHT22;22650;49.350;20.898;2022-08-21T12:22:18;24.40;99.90
36654;DHT22;22650;49.350;20.898;2022-08-21T12:25:05;24.40;99.90
36654;DHT22;22650;49.350;20.898;2022-08-21T12:27:47;24.40;99.90
36654;DHT22;22650;49.350;20.898;2022-08-21T12:30:32;24.40;99.90
36654;DHT22;22650;49.350;20.898;2022-08-21T12:33:19;24.30;99.90
36654;DHT22;22650;49.350;20.898;2022-08-21T12:36:03;24.30;99.90
36654;DHT22;22650;49.350;20.898;2022-08-21T12:38:45;24.30;99.90
36654;DHT22;22650;49.350;20.898;2022-08-21T12:41:27;24.30;99.90
36654;DHT22;22650;49.350;20.898;2022-08-21T12:44:05;24.20;99.90
36654;DHT22;22650;49.350;20.898;2022-08-21T12:46:45;24.20;99.90
36654;DHT22;22650;49.350;20.898;2022-08-21T12:49:26;24.20;99.90
36654;DHT22;22650;49.350;20.898;2022-08-21T12:52:05;24.20;99.90
36654;DHT22;22650;49.350;20.898;2022-08-21T12:54:43;24.10;99.90
36654;DHT22;22650;49.350;20.898;2022-08-21T12:57:20;24.10;99.90
36654;DHT22;22650;49.350;20.898;2022-08-21T12:59:55;24.10;99.90
36654;DHT22;22650;49.350;20.898;2022-08-21T13:02:31;24.10;99.90
36654;DHT22;22650;49.350;20.898;2022-08-21T13:05:07;24.10;99.90
36654;DHT22;22650;49.350;20.898;2022-08-21T13:07:45;24.00;99.90
36654;DHT22;22650;49.350;20.898;2022-08-21T13:10:23;24.00;99.90
36654;DHT22;22650;49.350;20.898;2022-08-21T13:13:01;24.00;99.90
36654;DHT22;22650;49.350;20.898;2022-08-21T13:15:44;23.90;99.90
36654;DHT22;22650;49.350;20.898;2022-08-21T13:18:24;23.80;99.90
36654;DHT22;22650;49.350;20.898;2022-08-21T13:21:06;23.80;99.90
36654;DHT22;22650;49.350;20.898;2022-08-21T13:23:41;23.70;99.90
36654;DHT22;22650;49.350;20.898;2022-08-21T13:26:21;23.70;99.90
36654;DHT22;22650;49.350;20.898;2022-08-21T13:29:07;23.70;99.90
36654;DHT22;22650;49.350;20.898;2022-08-21T13:31:48;23.50;99.90
36654;DHT22;22650;49.350;20.898;2022-08-21T13:34:28;23.50;99.90
36654;DHT22;22650;49.350;20.898;2022-08-21T13:37:04;23.40;99.90
36654;DHT22;22650;49.350;20.898;2022-08-21T13:39:39;23.30;99.90
36654;DHT22;22650;49.350;20.898;2022-08-21T13:42:14;23.30;99.90
36654;DHT22;22650;49.350;20.898;2022-08-21T13:44:48;23.30;99.90
36654;DHT22;22650;49.350;20.898;2022-08-21T13:47:25;23.30;99.90
36654;DHT22;22650;49.350;20.898;2022-08-21T13:49:59;23.30;99.90
36654;DHT22;22650;49.350;20.898;2022-08-21T13:52:33;23.20;99.90
36654;DHT22;22650;49.350;20.898;2022-08-21T13:55:15;23.20;99.90
36654;DHT22;22650;49.350;20.898;2022-08-21T13:57:59;23.10;99.90
36654;DHT22;22650;49.350;20.898;2022-08-21T14:00:34;23.10;99.90
36654;DHT22;22650;49.350;20.898;2022-08-21T14:03:10;23.10;99.90
36654;DHT22;22650;49.350;20.898;2022-08-21T14:05:45;23.00;99.90
36654;DHT22;22650;49.350;20.898;2022-08-21T14:08:25;22.90;99.90
36654;DHT22;22650;49.350;20.898;2022-08-21T14:11:03;22.80;99.90
36654;DHT22;22650;49.350;20.898;2022-08-21T14:13:41;22.80;99.90
36654;DHT22;22650;49.350;20.898;2022-08-21T14:16:19;22.80;99.90
36654;DHT22;22650;49.350;20.898;2022-08-21T14:19:08;22.70;99.90
36654;DHT22;22650;49.350;20.898;2022-08-21T14:21:42;22.60;99.90
36654;DHT22;22650;49.350;20.898;2022-08-21T14:24:26;22.60;99.90
36654;DHT22;22650;49.350;20.898;2022-08-21T14:27:03;22.60;99.90
36654;DHT22;22650;49.350;20.898;2022-08-21T14:29:40;22.50;99.90
36654;DHT22;22650;49.350;20.898;2022-08-21T14:32:19;22.50;99.90
36654;DHT22;22650;49.350;20.898;2022-08-21T14:34:57;22.50;99.90
36654;DHT22;22650;49.350;20.898;2022-08-21T14:37:31;22.40;99.90
36654;DHT22;22650;49.350;20.898;2022-08-21T14:40:05;22.40;99.90
36654;DHT22;22650;49.350;20.898;2022-08-21T14:42:40;22.40;99.90
36654;DHT22;22650;49.350;20.898;2022-08-21T14:45:17;22.40;99.90
36654;DHT22;22650;49.350;20.898;2022-08-21T14:47:58;22.40;99.90
36654;DHT22;22650;49.350;20.898;2022-08-21T14:50:32;22.40;99.90
36654;DHT22;22650;49.350;20.898;2022-08-21T14:53:07;22.40;99.90
36654;DHT22;22650;49.350;20.898;2022-08-21T14:55:42;22.40;99.90
36654;DHT22;22650;49.350;20.898;2022-08-21T14:58:29;22.40;99.90
36654;DHT22;22650;49.350;20.898;2022-08-21T15:01:06;22.40;99.90
36654;DHT22;22650;49.350;20.898;2022-08-21T15:03:40;22.40;99.90
36654;DHT22;22650;49.350;20.898;2022-08-21T15:06:13;22.40;99.90
36654;DHT22;22650;49.350;20.898;2022-08-21T15:08:47;22.40;99.90
36654;DHT22;22650;49.350;20.898;2022-08-21T15:11:23;22.50;99.90
36654;DHT22;22650;49.350;20.898;2022-08-21T15:14:23;22.50;99.90
36654;DHT22;22650;49.350;20.898;2022-08-21T15:16:58;22.50;99.90
36654;DHT22;22650;49.350;20.898;2022-08-21T15:19:33;22.50;99.90
36654;DHT22;22650;49.350;20.898;2022-08-21T15:22:07;22.50;99.90
36654;DHT22;22650;49.350;20.898;2022-08-21T15:24:50;22.50;99.90
36654;DHT22;22650;49.350;20.898;2022-08-21T15:27:23;22.50;99.90
36654;DHT22;22650;49.350;20.898;2022-08-21T15:29:57;22.50;99.90
36654;DHT22;22650;49.350;20.898;2022-08-21T15:32:32;22.50;99.90
36654;DHT22;22650;49.350;20.898;2022-08-21T15:35:06;22.50;99.90
36654;DHT22;22650;49.350;20.898;2022-08-21T15:37:39;22.60;99.90
36654;DHT22;22650;49.350;20.898;2022-08-21T15:40:13;22.60;99.90
36654;DHT22;22650;49.350;20.898;2022-08-21T15:42:46;22.60;99.90
36654;DHT22;22650;49.350;20.898;2022-08-21T15:45:20;22.60;99.90
36654;DHT22;22650;49.350;20.898;2022-08-21T15:47:56;22.60;99.90
36654;DHT22;22650;49.350;20.898;2022-08-21T15:50:29;22.60;99.90
36654;DHT22;22650;49.350;20.898;2022-08-21T15:53:04;22.60;99.90
36654;DHT22;22650;49.350;20.898;2022-08-21T15:55:39;22.60;99.90
36654;DHT22;22650;49.350;20.898;2022-08-21T15:58:14;22.50;99.90
36654;DHT22;22650;49.350;20.898;2022-08-21T16:00:48;22.50;99.90
36654;DHT22;22650;49.350;20.898;2022-08-21T16:03:23;22.50;99.90
36654;DHT22;22650;49.350;20.898;2022-08-21T16:05:58;22.50;99.90
36654;DHT22;22650;49.350;20.898;2022-08-21T16:08:31;22.50;99.90
36654;DHT22;22650;49.350;20.898;2022-08-21T16:11:05;22.50;99.90
36654;DHT22;22650;49.350;20.898;2022-08-21T16:13:40;22.50;99.90
36654;DHT22;22650;49.350;20.898;2022-08-21T16:16:18;22.50;99.90